createdAt,value
2017-09-02T00:00:17.715Z,11.50
2017-09-02T00:02:45.284Z,11.40
2017-09-02T00:05:12.814Z,11.40
2017-09-02T00:07:40.364Z,11.40
2017-09-02T00:10:07.932Z,11.40
2017-09-02T00:12:35.464Z,11.30
2017-09-02T00:15:03.010Z,11.30
2017-09-02T00:17:30.567Z,11.30
2017-09-02T00:19:58.128Z,11.30
2017-09-02T00:22:25.691Z,11.20
2017-09-02T00:24:53.245Z,11.30
2017-09-02T00:27:20.892Z,11.50
2017-09-02T00:29:48.459Z,11.60
2017-09-02T00:32:16.113Z,11.60
2017-09-02T00:34:43.641Z,11.40
2017-09-02T00:37:11.217Z,11.30
2017-09-02T00:39:38.755Z,11.20
2017-09-02T00:42:06.300Z,11.20
2017-09-02T00:44:33.857Z,11.10
2017-09-02T00:47:01.420Z,11.00
2017-09-02T00:49:28.964Z,11.00
2017-09-02T00:51:56.527Z,10.90
2017-09-02T00:54:24.072Z,10.80
2017-09-02T00:56:51.617Z,10.80
2017-09-02T00:59:19.173Z,10.80
2017-09-02T01:01:46.747Z,10.80
2017-09-02T01:04:14.285Z,10.80
2017-09-02T01:06:41.864Z,10.80
2017-09-02T01:09:09.412Z,10.80
2017-09-02T01:11:36.973Z,10.90
2017-09-02T01:14:04.529Z,10.80
2017-09-02T01:16:32.191Z,10.90
2017-09-02T01:18:59.738Z,10.80
2017-09-02T01:21:27.276Z,10.80
2017-09-02T01:23:54.827Z,10.80
2017-09-02T01:26:22.366Z,10.80
2017-09-02T01:28:49.928Z,10.70
2017-09-02T01:31:17.480Z,10.70
2017-09-02T01:33:45.042Z,10.70
2017-09-02T01:36:12.594Z,10.80
2017-09-02T01:38:40.139Z,10.80
2017-09-02T01:41:07.738Z,10.80
2017-09-02T01:43:35.283Z,10.80
2017-09-02T01:46:02.853Z,10.90
2017-09-02T01:48:30.398Z,10.90
2017-09-02T01:50:57.946Z,10.90
2017-09-02T01:53:25.494Z,10.90
2017-09-02T01:55:53.065Z,10.90
2017-09-02T01:58:20.610Z,10.80
2017-09-02T02:00:48.158Z,10.80
2017-09-02T02:03:15.734Z,10.80
2017-09-02T02:05:43.269Z,10.70
2017-09-02T02:08:10.835Z,10.70
2017-09-02T02:10:38.376Z,10.80
2017-09-02T02:13:05.948Z,10.90
2017-09-02T02:15:33.510Z,10.90
2017-09-02T02:18:01.087Z,10.90
2017-09-02T02:20:28.647Z,10.80
2017-09-02T02:22:56.207Z,10.90
2017-09-02T02:25:23.761Z,10.90
2017-09-02T02:27:51.329Z,10.80
2017-09-02T02:30:18.866Z,10.90
2017-09-02T02:32:46.447Z,10.80
2017-09-02T02:35:13.995Z,11.00
2017-09-02T02:37:41.561Z,11.00
2017-09-02T02:40:09.090Z,11.10
2017-09-02T02:42:36.668Z,11.00
2017-09-02T02:45:04.222Z,10.90
2017-09-02T02:47:31.785Z,10.80
2017-09-02T02:49:59.324Z,10.80
2017-09-02T02:52:26.874Z,10.70
2017-09-02T02:54:54.432Z,10.70
2017-09-02T02:57:21.968Z,10.70
2017-09-02T02:59:49.607Z,10.60
2017-09-02T03:02:17.149Z,10.60
2017-09-02T03:04:44.690Z,10.60
2017-09-02T03:07:12.262Z,10.60
2017-09-02T03:09:39.823Z,10.60
2017-09-02T03:12:07.380Z,10.70
2017-09-02T03:14:34.924Z,10.70
2017-09-02T03:17:02.462Z,10.60
2017-09-02T03:19:30.041Z,10.60
2017-09-02T03:21:57.580Z,10.60
2017-09-02T03:24:25.137Z,10.60
2017-09-02T03:26:52.677Z,10.60
2017-09-02T03:29:20.244Z,10.50
2017-09-02T03:31:47.784Z,10.50
2017-09-02T03:34:15.341Z,10.50
2017-09-02T03:36:42.893Z,10.50
2017-09-02T03:39:10.483Z,10.50
2017-09-02T03:41:38.026Z,10.50
2017-09-02T03:44:05.585Z,10.40
2017-09-02T03:46:33.150Z,10.40
2017-09-02T03:49:00.678Z,10.40
2017-09-02T03:51:28.233Z,10.40
2017-09-02T03:53:55.774Z,10.40
2017-09-02T03:56:24.101Z,10.30
2017-09-02T03:58:51.661Z,10.30
2017-09-02T04:01:19.397Z,10.30
2017-09-02T04:03:47.001Z,10.40
2017-09-02T04:06:14.561Z,10.40
2017-09-02T04:08:42.133Z,10.40
2017-09-02T04:11:09.676Z,10.40
2017-09-02T04:13:37.222Z,10.40
2017-09-02T04:16:04.777Z,10.40
2017-09-02T04:18:32.332Z,10.40
2017-09-02T04:20:59.860Z,10.40
2017-09-02T04:23:27.424Z,10.40
2017-09-02T04:25:54.980Z,10.50
2017-09-02T04:28:22.533Z,10.50
2017-09-02T04:30:50.096Z,10.50
2017-09-02T04:33:17.660Z,10.50
2017-09-02T04:35:45.217Z,10.50
2017-09-02T04:38:12.771Z,10.50
2017-09-02T04:40:40.301Z,10.50
2017-09-02T04:43:07.858Z,10.50
2017-09-02T04:45:35.391Z,10.40
2017-09-02T04:48:02.953Z,10.40
2017-09-02T04:50:30.505Z,10.40
2017-09-02T04:52:58.058Z,10.40
2017-09-02T04:55:25.606Z,10.40
2017-09-02T04:57:53.158Z,10.40
2017-09-02T05:00:20.726Z,10.40
2017-09-02T05:02:48.936Z,10.40
2017-09-02T05:05:16.468Z,10.50
2017-09-02T05:07:44.017Z,10.50
2017-09-02T05:10:11.565Z,10.50
2017-09-02T05:12:39.109Z,10.60
2017-09-02T05:15:06.735Z,10.50
2017-09-02T05:17:34.285Z,10.40
2017-09-02T05:20:01.853Z,10.50
2017-09-02T05:22:29.402Z,10.40
2017-09-02T05:24:56.977Z,10.50
2017-09-02T05:27:24.534Z,10.40
2017-09-02T05:29:52.096Z,10.50
2017-09-02T05:32:19.633Z,10.50
2017-09-02T05:34:47.193Z,10.60
2017-09-02T05:37:14.729Z,10.70
2017-09-02T05:39:42.256Z,10.70
2017-09-02T05:42:09.817Z,10.70
2017-09-02T05:44:37.381Z,10.70
2017-09-02T05:47:04.939Z,10.90
2017-09-02T05:49:32.475Z,10.90
2017-09-02T05:52:00.014Z,10.90
2017-09-02T05:54:27.600Z,10.90
2017-09-02T05:56:55.154Z,10.90
2017-09-02T05:59:22.718Z,11.00
2017-09-02T06:01:50.276Z,11.10
2017-09-02T06:04:17.837Z,11.10
2017-09-02T06:06:45.370Z,11.20
2017-09-02T06:09:12.914Z,11.40
2017-09-02T06:11:40.465Z,11.50
2017-09-02T06:14:08.002Z,11.50
2017-09-02T06:16:35.581Z,11.70
2017-09-02T06:19:03.125Z,11.70
2017-09-02T06:21:30.699Z,11.80
2017-09-02T06:23:58.245Z,11.80
2017-09-02T06:26:25.801Z,11.80
2017-09-02T06:28:53.351Z,11.80
2017-09-02T06:31:20.878Z,11.80
2017-09-02T06:33:48.439Z,12.00
2017-09-02T06:36:15.970Z,12.10
2017-09-02T06:38:44.305Z,12.30
2017-09-02T06:41:11.849Z,12.30
2017-09-02T06:43:39.421Z,12.40
2017-09-02T06:46:07.066Z,12.40
2017-09-02T06:48:34.639Z,12.40
2017-09-02T06:51:02.214Z,12.40
2017-09-02T06:53:29.768Z,12.70
2017-09-02T06:55:57.317Z,12.70
2017-09-02T06:58:24.894Z,12.70
2017-09-02T07:00:52.440Z,12.90
2017-09-02T07:03:19.998Z,12.90
2017-09-02T07:05:47.973Z,13.00
2017-09-02T07:08:15.545Z,13.00
2017-09-02T07:10:43.177Z,13.00
2017-09-02T07:13:10.722Z,12.80
2017-09-02T07:15:38.301Z,12.90
2017-09-02T07:18:05.845Z,13.10
2017-09-02T07:20:33.439Z,13.10
2017-09-02T07:23:00.981Z,13.20
2017-09-02T07:25:28.565Z,13.20
2017-09-02T07:27:56.110Z,13.20
2017-09-02T07:30:23.700Z,13.30
2017-09-02T07:32:51.318Z,13.30
2017-09-02T07:35:18.872Z,13.50
2017-09-02T07:37:46.437Z,13.60
2017-09-02T07:40:13.985Z,13.60
2017-09-02T07:42:41.517Z,13.70
2017-09-02T07:45:09.069Z,13.70
2017-09-02T07:47:36.599Z,13.90
2017-09-02T07:50:04.161Z,14.00
2017-09-02T07:52:31.705Z,14.10
2017-09-02T07:54:59.238Z,14.20
2017-09-02T07:57:26.778Z,14.30
2017-09-02T07:59:54.324Z,14.40
2017-09-02T08:02:21.888Z,14.40
2017-09-02T08:04:49.561Z,14.40
2017-09-02T08:07:17.117Z,14.30
2017-09-02T08:09:44.669Z,14.20
2017-09-02T08:12:12.233Z,14.30
2017-09-02T08:14:39.799Z,14.40
2017-09-02T08:17:07.573Z,14.30
2017-09-02T08:19:35.125Z,14.50
2017-09-02T08:22:02.665Z,14.40
2017-09-02T08:24:30.192Z,14.50
2017-09-02T08:26:57.751Z,14.50
2017-09-02T08:29:25.398Z,14.60
2017-09-02T08:31:52.970Z,14.60
2017-09-02T08:34:20.527Z,14.60
2017-09-02T08:36:48.067Z,14.70
2017-09-02T08:39:21.396Z,15.00
2017-09-02T08:41:48.957Z,15.30
2017-09-02T08:44:16.501Z,15.20
2017-09-02T08:46:44.053Z,15.20
2017-09-02T08:49:11.608Z,15.20
2017-09-02T08:51:39.132Z,15.30
2017-09-02T08:54:06.683Z,15.20
2017-09-02T08:56:34.215Z,15.30
2017-09-02T08:59:01.780Z,15.30
2017-09-02T09:01:29.324Z,15.40
2017-09-02T09:03:56.873Z,15.60
2017-09-02T09:06:24.412Z,15.60
2017-09-02T09:08:51.964Z,15.80
2017-09-02T09:11:19.497Z,16.10
2017-09-02T09:13:47.053Z,16.20
2017-09-02T09:16:14.597Z,15.90
2017-09-02T09:18:42.154Z,16.10
2017-09-02T09:21:09.710Z,16.30
2017-09-02T09:23:37.244Z,16.60
2017-09-02T09:26:04.797Z,16.70
2017-09-02T09:28:32.360Z,17.00
2017-09-02T09:30:59.921Z,17.20
2017-09-02T09:33:27.470Z,17.50
2017-09-02T09:35:55.012Z,17.00
2017-09-02T09:38:22.565Z,17.10
2017-09-02T09:40:50.097Z,17.40
2017-09-02T09:43:17.633Z,17.40
2017-09-02T09:45:45.182Z,17.20
2017-09-02T09:48:12.727Z,17.40
2017-09-02T09:50:40.273Z,17.50
2017-09-02T09:53:07.809Z,18.00
2017-09-02T09:55:35.381Z,18.70
2017-09-02T09:58:02.942Z,19.40
2017-09-02T10:00:30.505Z,19.90
2017-09-02T10:02:58.022Z,19.20
2017-09-02T10:05:25.568Z,18.90
2017-09-02T10:07:53.892Z,19.20
2017-09-02T10:10:21.421Z,19.20
2017-09-02T10:12:49.004Z,19.30
2017-09-02T10:15:16.543Z,18.60
2017-09-02T10:17:44.113Z,18.70
2017-09-02T10:20:11.638Z,18.80
2017-09-02T10:22:39.158Z,19.30
2017-09-02T10:25:06.730Z,19.40
2017-09-02T10:27:34.261Z,19.20
2017-09-02T10:30:01.813Z,19.00
2017-09-02T10:32:29.337Z,18.70
2017-09-02T10:34:56.889Z,18.90
2017-09-02T10:37:24.453Z,18.90
2017-09-02T10:39:51.986Z,19.40
2017-09-02T10:42:19.568Z,20.30
2017-09-02T10:44:47.297Z,20.20
2017-09-02T10:47:14.857Z,20.00
2017-09-02T10:49:42.409Z,20.20
2017-09-02T10:52:09.964Z,20.30
2017-09-02T10:54:37.525Z,20.30
2017-09-02T10:57:05.049Z,21.10
2017-09-02T10:59:32.605Z,21.00
2017-09-02T11:02:00.137Z,20.50
2017-09-02T11:04:28.679Z,20.10
2017-09-02T11:06:56.206Z,19.80
2017-09-02T11:09:24.537Z,19.00
2017-09-02T11:11:52.082Z,19.00
2017-09-02T11:14:19.613Z,18.40
2017-09-02T11:16:47.210Z,18.30
2017-09-02T11:19:14.748Z,18.60
2017-09-02T11:21:42.290Z,18.20
2017-09-02T11:24:09.850Z,18.10
2017-09-02T11:26:37.442Z,18.10
2017-09-02T11:29:05.020Z,18.00
2017-09-02T11:31:32.569Z,18.00
2017-09-02T11:34:00.122Z,18.10
2017-09-02T11:36:27.671Z,18.10
2017-09-02T11:38:55.253Z,18.30
2017-09-02T11:41:22.794Z,17.90
2017-09-02T11:43:50.360Z,17.80
2017-09-02T11:46:17.921Z,17.80
2017-09-02T11:48:45.645Z,18.00
2017-09-02T11:51:13.213Z,18.10
2017-09-02T11:53:40.753Z,17.90
2017-09-02T11:56:08.305Z,17.70
2017-09-02T11:58:35.870Z,17.70
2017-09-02T12:01:03.410Z,17.70
2017-09-02T12:03:30.966Z,17.40
2017-09-02T12:05:58.505Z,17.20
2017-09-02T12:08:26.068Z,17.50
2017-09-02T12:10:53.620Z,17.20
2017-09-02T12:13:21.166Z,17.10
2017-09-02T12:15:48.712Z,16.80
2017-09-02T12:18:16.277Z,16.70
2017-09-02T12:20:43.828Z,16.60
2017-09-02T12:23:11.425Z,16.70
2017-09-02T12:25:38.989Z,16.80
2017-09-02T12:28:06.565Z,16.50
2017-09-02T12:30:34.134Z,16.20
2017-09-02T12:33:01.674Z,16.10
2017-09-02T12:35:29.333Z,16.00
2017-09-02T12:37:56.873Z,15.90
2017-09-02T12:40:24.437Z,15.50
2017-09-02T12:42:51.966Z,15.40
2017-09-02T12:45:19.518Z,15.30
2017-09-02T12:47:47.097Z,15.40
2017-09-02T12:50:14.635Z,15.40
2017-09-02T12:52:42.181Z,15.80
2017-09-02T12:55:09.764Z,16.20
2017-09-02T12:57:37.312Z,16.20
2017-09-02T13:00:04.877Z,16.50
2017-09-02T13:02:32.428Z,16.20
2017-09-02T13:04:59.953Z,16.10
2017-09-02T13:07:27.508Z,15.60
2017-09-02T13:09:55.041Z,15.50
2017-09-02T13:12:22.606Z,15.70
2017-09-02T13:14:50.138Z,15.70
2017-09-02T13:17:17.698Z,15.90
2017-09-02T13:19:45.273Z,16.10
2017-09-02T13:22:12.812Z,16.10
2017-09-02T13:24:40.367Z,16.10
2017-09-02T13:27:07.917Z,16.20
2017-09-02T13:29:35.469Z,16.00
2017-09-02T13:32:03.129Z,16.00
2017-09-02T13:37:04.724Z,16.00
2017-09-02T13:39:32.257Z,16.60
2017-09-02T13:41:59.812Z,17.00
2017-09-02T13:44:27.372Z,17.30
2017-09-02T13:46:54.915Z,17.60
2017-09-02T13:49:22.476Z,17.40
2017-09-02T13:51:50.013Z,17.50
2017-09-02T13:54:17.593Z,17.40
2017-09-02T13:56:45.120Z,17.40
2017-09-02T13:59:12.650Z,17.50
2017-09-02T14:01:40.218Z,17.70
2017-09-02T14:04:07.781Z,17.80
2017-09-02T14:06:35.317Z,18.10
2017-09-02T14:09:02.876Z,18.10
2017-09-02T14:11:31.202Z,18.50
2017-09-02T14:13:58.856Z,18.40
2017-09-02T14:16:26.397Z,18.50
2017-09-02T14:18:54.002Z,18.50
2017-09-02T14:21:21.537Z,18.40
2017-09-02T14:23:49.113Z,18.50
2017-09-02T14:26:16.747Z,18.60
2017-09-02T14:28:44.315Z,18.80
2017-09-02T14:31:11.857Z,19.20
2017-09-02T14:33:39.434Z,19.00
2017-09-02T14:36:06.977Z,18.70
2017-09-02T14:38:34.537Z,18.80
2017-09-02T14:41:02.085Z,18.60
2017-09-02T14:43:29.646Z,18.60
2017-09-02T14:45:57.965Z,18.10
2017-09-02T14:48:25.506Z,18.10
2017-09-02T14:50:53.077Z,18.20
2017-09-02T14:53:20.606Z,18.20
2017-09-02T14:55:48.153Z,18.10
2017-09-02T14:58:15.720Z,18.10
2017-09-02T15:00:43.250Z,17.90
2017-09-02T15:03:10.793Z,17.80
2017-09-02T15:05:38.361Z,17.80
2017-09-02T15:08:05.894Z,17.90
2017-09-02T15:10:33.460Z,18.00
2017-09-02T15:13:00.999Z,17.90
2017-09-02T15:15:28.532Z,17.70
2017-09-02T15:17:56.126Z,17.70
2017-09-02T15:20:23.695Z,17.70
2017-09-02T15:22:51.244Z,17.60
2017-09-02T15:25:18.785Z,17.60
2017-09-02T15:27:46.350Z,17.60
2017-09-02T15:30:13.889Z,17.40
2017-09-02T15:32:41.430Z,17.30
2017-09-02T15:35:08.977Z,17.20
2017-09-02T15:37:36.533Z,17.00
2017-09-02T15:40:04.129Z,16.90
2017-09-02T15:42:31.724Z,17.00
2017-09-02T15:44:59.293Z,16.90
2017-09-02T15:47:26.829Z,16.90
2017-09-02T15:49:54.472Z,16.80
2017-09-02T15:52:22.009Z,16.80
2017-09-02T15:54:49.592Z,16.80
2017-09-02T15:57:17.154Z,16.80
2017-09-02T15:59:44.682Z,16.70
2017-09-02T16:02:12.260Z,16.50
2017-09-02T16:04:39.804Z,16.20
2017-09-02T16:07:07.332Z,16.20
2017-09-02T16:09:34.896Z,16.20
2017-09-02T16:12:02.469Z,16.10
2017-09-02T16:14:30.006Z,15.90
2017-09-02T16:16:57.546Z,15.90
2017-09-02T16:19:25.100Z,15.90
2017-09-02T16:21:52.643Z,15.80
2017-09-02T16:24:20.230Z,15.70
2017-09-02T16:26:47.769Z,15.80
2017-09-02T16:29:15.321Z,15.70
2017-09-02T16:31:42.866Z,15.70
2017-09-02T16:34:10.455Z,15.70
2017-09-02T16:36:38.012Z,15.60
2017-09-02T16:39:05.582Z,15.40
2017-09-02T16:41:33.139Z,15.30
2017-09-02T16:44:00.709Z,15.10
2017-09-02T16:46:28.247Z,15.00
2017-09-02T16:48:55.776Z,14.90
2017-09-02T16:51:23.342Z,14.90
2017-09-02T16:53:50.885Z,14.80
2017-09-02T16:56:18.445Z,14.70
2017-09-02T16:58:45.993Z,14.40
2017-09-02T17:01:14.339Z,14.50
2017-09-02T17:03:41.871Z,14.50
2017-09-02T17:06:09.451Z,14.50
2017-09-02T17:08:36.990Z,14.40
2017-09-02T17:11:04.586Z,14.30
2017-09-02T17:13:32.124Z,14.20
2017-09-02T17:15:59.710Z,14.20
2017-09-02T17:18:27.271Z,14.20
2017-09-02T17:20:54.831Z,14.10
2017-09-02T17:23:22.430Z,14.10
2017-09-02T17:25:49.977Z,14.10
2017-09-02T17:28:17.515Z,14.00
2017-09-02T17:30:45.082Z,13.90
2017-09-02T17:33:12.650Z,13.80
2017-09-02T17:35:40.202Z,13.70
2017-09-02T17:38:07.756Z,13.80
2017-09-02T17:40:35.304Z,13.60
2017-09-02T17:43:02.945Z,13.70
2017-09-02T17:45:30.517Z,13.50
2017-09-02T17:47:58.050Z,13.50
2017-09-02T17:50:25.608Z,13.50
2017-09-02T17:52:53.174Z,13.40
2017-09-02T17:55:20.708Z,13.20
2017-09-02T17:57:48.292Z,13.00
2017-09-02T18:00:15.846Z,12.90
2017-09-02T18:02:43.404Z,12.90
2017-09-02T18:05:11.000Z,12.80
2017-09-02T18:07:38.550Z,13.00
2017-09-02T18:10:06.113Z,12.90
2017-09-02T18:12:33.659Z,12.90
2017-09-02T18:15:01.228Z,12.90
2017-09-02T18:17:28.757Z,13.00
2017-09-02T18:19:56.341Z,13.00
2017-09-02T18:22:23.889Z,13.10
2017-09-02T18:24:51.454Z,13.00
2017-09-02T18:27:19.012Z,12.80
2017-09-02T18:29:46.561Z,12.90
2017-09-02T18:32:14.145Z,12.80
2017-09-02T18:34:41.681Z,12.90
2017-09-02T18:37:09.266Z,12.90
2017-09-02T18:39:36.809Z,12.80
2017-09-02T18:42:04.404Z,12.90
2017-09-02T18:44:31.947Z,12.80
2017-09-02T18:46:59.501Z,12.80
2017-09-02T18:49:27.049Z,12.60
2017-09-02T18:51:54.586Z,12.60
2017-09-02T18:54:22.161Z,12.60
2017-09-02T18:56:49.845Z,12.60
2017-09-02T18:59:17.378Z,12.70
2017-09-02T19:01:44.909Z,12.70
2017-09-02T19:04:12.494Z,12.60
2017-09-02T19:06:40.038Z,12.60
2017-09-02T19:09:07.593Z,12.60
2017-09-02T19:11:35.165Z,12.50
2017-09-02T19:14:02.722Z,12.50
2017-09-02T19:16:30.322Z,12.50
2017-09-02T19:18:57.857Z,12.50
2017-09-02T19:21:25.391Z,12.40
2017-09-02T19:23:52.951Z,12.30
2017-09-02T19:26:20.524Z,12.10
2017-09-02T19:28:48.085Z,12.10
2017-09-02T19:31:15.628Z,12.10
2017-09-02T19:33:43.189Z,12.00
2017-09-02T19:36:10.725Z,11.90
2017-09-02T19:38:38.265Z,11.80
2017-09-02T19:41:05.832Z,11.70
2017-09-02T19:43:33.357Z,11.70
2017-09-02T19:46:00.921Z,11.80
2017-09-02T19:48:28.474Z,11.70
2017-09-02T19:50:56.016Z,11.60
2017-09-02T19:53:24.444Z,11.60
2017-09-02T19:55:51.982Z,11.60
2017-09-02T19:58:19.568Z,11.50
2017-09-02T20:00:47.218Z,11.30
2017-09-02T20:03:14.764Z,11.20
2017-09-02T20:05:42.303Z,11.20
2017-09-02T20:08:09.872Z,11.20
2017-09-02T20:10:37.401Z,11.20
2017-09-02T20:13:05.001Z,11.10
2017-09-02T20:15:32.537Z,11.00
2017-09-02T20:18:00.092Z,11.00
2017-09-02T20:20:27.657Z,11.10
2017-09-02T20:22:55.185Z,11.00
2017-09-02T20:25:22.737Z,10.90
2017-09-02T20:27:50.273Z,10.90
2017-09-02T20:30:17.853Z,10.80
2017-09-02T20:32:45.381Z,10.80
2017-09-02T20:35:12.946Z,10.80
2017-09-02T20:37:40.481Z,10.90
2017-09-02T20:40:08.033Z,10.80
2017-09-02T20:42:35.565Z,10.80
2017-09-02T20:45:03.128Z,10.70
2017-09-02T20:47:30.653Z,10.70
2017-09-02T20:49:58.210Z,10.70
2017-09-02T20:52:25.750Z,10.70
2017-09-02T20:54:53.315Z,10.70
2017-09-02T20:57:20.850Z,10.60
2017-09-02T20:59:48.386Z,10.50
2017-09-02T21:02:15.937Z,10.50
2017-09-02T21:04:43.463Z,10.40
2017-09-02T21:07:11.019Z,10.40
2017-09-02T21:09:38.553Z,10.30
2017-09-02T21:12:06.104Z,10.30
2017-09-02T21:14:33.665Z,10.40
2017-09-02T21:17:01.214Z,10.40
2017-09-02T21:19:28.773Z,10.30
2017-09-02T21:21:56.329Z,10.30
2017-09-02T21:24:23.869Z,10.20
2017-09-02T21:26:51.414Z,10.20
2017-09-02T21:29:18.973Z,10.20
2017-09-02T21:31:46.544Z,10.20
2017-09-02T21:34:14.317Z,10.20
2017-09-02T21:36:41.872Z,10.20
2017-09-02T21:39:09.418Z,10.20
2017-09-02T21:41:36.978Z,10.20
2017-09-02T21:44:04.630Z,10.10
2017-09-02T21:46:32.182Z,10.00
2017-09-02T21:48:59.721Z,10.00
2017-09-02T21:51:27.279Z,10.00
2017-09-02T21:53:54.836Z,9.90
2017-09-02T21:56:22.354Z,9.90
2017-09-02T21:58:49.912Z,9.90
2017-09-02T22:01:17.458Z,9.90
2017-09-02T22:03:45.108Z,9.90
2017-09-02T22:06:12.656Z,9.90
2017-09-02T22:08:40.226Z,9.90
2017-09-02T22:11:07.784Z,9.90
2017-09-02T22:13:35.333Z,9.90
2017-09-02T22:16:02.867Z,9.90
2017-09-02T22:18:30.385Z,9.80
2017-09-02T22:20:57.945Z,9.90
2017-09-02T22:23:25.477Z,9.90
2017-09-02T22:25:53.041Z,9.80
2017-09-02T22:28:20.584Z,9.80
2017-09-02T22:30:48.112Z,9.80
2017-09-02T22:33:15.686Z,9.80
2017-09-02T22:35:43.221Z,9.80
2017-09-02T22:38:10.784Z,9.90
2017-09-02T22:40:38.320Z,9.90
2017-09-02T22:43:05.884Z,9.90
2017-09-02T22:45:33.425Z,10.00
2017-09-02T22:48:00.952Z,10.00
2017-09-02T22:50:28.518Z,10.10
2017-09-02T22:52:56.098Z,10.20
2017-09-02T22:55:23.649Z,10.20
2017-09-02T22:57:51.189Z,10.20
2017-09-02T23:00:18.743Z,10.30
2017-09-02T23:02:46.289Z,10.30
2017-09-02T23:05:13.831Z,10.30
2017-09-02T23:07:41.405Z,10.40
2017-09-02T23:10:08.939Z,10.50
2017-09-02T23:12:36.502Z,10.50
2017-09-02T23:15:04.043Z,10.50
2017-09-02T23:17:31.645Z,10.50
2017-09-02T23:19:59.183Z,10.50
2017-09-02T23:22:26.742Z,10.50
2017-09-02T23:24:54.379Z,10.50
2017-09-02T23:27:21.920Z,10.60
2017-09-02T23:29:49.498Z,10.60
2017-09-02T23:32:17.049Z,10.50
2017-09-02T23:34:44.617Z,10.60
2017-09-02T23:37:12.160Z,10.60
2017-09-02T23:39:39.737Z,10.60
2017-09-02T23:42:07.281Z,10.60
2017-09-02T23:44:34.849Z,10.50
2017-09-02T23:47:02.401Z,10.50
2017-09-02T23:49:29.975Z,10.50
2017-09-02T23:51:57.541Z,10.50
2017-09-02T23:54:25.104Z,10.60
2017-09-02T23:56:52.677Z,10.70
2017-09-02T23:59:20.223Z,10.60
